Time;durP1;ratioP1;P1;durP2;ratioP2;P2;SDS_P1;SDS_P2;PMS_P1;PMS_P2;Temp;Humidity;BMP_temperature;BMP_pressure;BME280_temperature;BME280_humidity;BME280_pressure;Samples;Min_cycle;Max_cycle;Signal;HPM_P1;HPM_P2
2021/11/29 00:01:55;;;;;;;6.57;4.05;;;;;;;0.81;100.00;95762.94;5089941;28;20389;-74
2021/11/29 00:04:21;;;;;;;5.90;3.30;;;;;;;0.83;100.00;95764.25;5087888;28;20084;-74
2021/11/29 00:06:47;;;;;;;5.95;3.47;;;;;;;0.84;100.00;95765.84;5089834;28;20374;-74
2021/11/29 00:09:13;;;;;;;4.70;2.42;;;;;;;0.85;100.00;95766.63;5090093;28;20061;-74
2021/11/29 00:11:39;;;;;;;4.10;2.60;;;;;;;0.84;100.00;95770.44;5090105;28;20118;-74
2021/11/29 00:14:04;;;;;;;4.60;2.60;;;;;;;0.70;100.00;95767.63;5089674;28;20036;-74
2021/11/29 00:16:30;;;;;;;4.38;2.70;;;;;;;0.79;100.00;95770.47;5089734;28;20024;-77
2021/11/29 00:18:55;;;;;;;4.97;2.95;;;;;;;0.68;100.00;95767.13;5089723;28;20028;-74
2021/11/29 00:21:20;;;;;;;5.10;2.95;;;;;;;0.75;100.00;95778.31;5088076;28;20043;-74
2021/11/29 00:23:46;;;;;;;4.50;2.55;;;;;;;0.70;100.00;95780.25;5088868;28;20266;-74
2021/11/29 00:26:16;;;;;;;5.88;2.70;;;;;;;0.79;100.00;95784.72;5087052;28;20024;-75
2021/11/29 00:28:44;;;;;;;4.22;2.38;;;;;;;0.81;100.00;95784.44;5084911;28;20821;-76
2021/11/29 00:31:10;;;;;;;4.65;2.63;;;;;;;0.79;100.00;95786.59;5071113;28;20034;-74
2021/11/29 00:33:35;;;;;;;4.13;2.40;;;;;;;0.78;100.00;95776.97;5083111;28;20025;-74
2021/11/29 00:36:02;;;;;;;3.72;2.08;;;;;;;0.75;100.00;95775.63;5089093;28;20028;-75
2021/11/29 00:38:27;;;;;;;3.58;2.10;;;;;;;0.71;100.00;95779.19;5089481;28;20105;-75
2021/11/29 00:40:53;;;;;;;4.07;2.33;;;;;;;0.67;100.00;95784.34;5089431;28;20073;-76
2021/11/29 00:43:18;;;;;;;4.15;2.40;;;;;;;0.67;100.00;95781.63;5090558;28;20039;-75
2021/11/29 00:45:44;;;;;;;5.53;2.78;;;;;;;0.74;100.00;95784.00;5088235;28;20025;-76
2021/11/29 00:48:09;;;;;;;7.28;4.07;;;;;;;0.77;100.00;95784.22;5088952;28;20039;-73
2021/11/29 00:50:37;;;;;;;5.95;3.30;;;;;;;0.81;100.00;95782.56;5089504;28;20035;-75
2021/11/29 00:53:08;;;;;;;6.05;3.20;;;;;;;0.97;100.00;95789.34;5089770;28;20048;-75
2021/11/29 00:55:34;;;;;;;6.97;3.58;;;;;;;1.13;100.00;95799.94;5088918;28;20040;-75
2021/11/29 00:58:00;;;;;;;6.68;3.22;;;;;;;1.09;100.00;95799.72;5089385;28;20046;-74
2021/11/29 01:00:27;;;;;;;6.57;3.58;;;;;;;1.04;100.00;95802.44;5089118;28;20035;-74
2021/11/29 01:02:54;;;;;;;6.38;3.30;;;;;;;0.99;100.00;95800.63;5089203;28;20031;-74
2021/11/29 01:05:20;;;;;;;5.45;3.20;;;;;;;1.09;100.00;95810.47;5087588;28;20465;-75
2021/11/29 01:07:46;;;;;;;5.60;3.13;;;;;;;1.11;100.00;95815.56;5087662;28;20032;-75
2021/11/29 01:10:13;;;;;;;5.30;2.90;;;;;;;1.06;100.00;95819.13;5089307;28;20758;-74
2021/11/29 01:12:39;;;;;;;5.07;3.15;;;;;;;1.07;100.00;95821.53;5087894;28;20067;-74
2021/11/29 01:15:07;;;;;;;4.55;2.40;;;;;;;1.11;100.00;95821.75;5088875;28;20029;-74
2021/11/29 01:17:32;;;;;;;4.93;3.03;;;;;;;1.07;100.00;95816.13;5089345;28;20032;-74
2021/11/29 01:19:58;;;;;;;5.25;3.20;;;;;;;1.11;100.00;95820.94;5089548;28;20444;-76
2021/11/29 01:22:23;;;;;;;5.03;2.97;;;;;;;1.02;100.00;95824.28;5074746;28;20085;-75
2021/11/29 01:24:49;;;;;;;5.43;2.85;;;;;;;1.01;100.00;95828.06;5069599;28;20565;-75
2021/11/29 01:27:14;;;;;;;4.30;2.60;;;;;;;1.11;100.00;95832.50;5072844;28;20059;-76
2021/11/29 01:29:40;;;;;;;4.93;2.58;;;;;;;1.10;100.00;95830.91;5073506;28;20033;-76
2021/11/29 01:32:06;;;;;;;3.78;2.33;;;;;;;1.07;100.00;95829.59;5069346;28;20028;-76
2021/11/29 01:34:31;;;;;;;4.60;2.60;;;;;;;1.08;100.00;95825.00;5068848;28;20502;-76
2021/11/29 01:36:57;;;;;;;4.38;2.55;;;;;;;1.15;100.00;95835.44;5072224;28;20470;-73
2021/11/29 01:39:22;;;;;;;5.00;2.72;;;;;;;1.20;100.00;95838.06;5072247;28;20033;-74
2021/11/29 01:41:49;;;;;;;4.13;2.50;;;;;;;1.14;100.00;95836.53;5074566;28;20055;-76
2021/11/29 01:44:16;;;;;;;4.32;2.75;;;;;;;1.16;100.00;95840.50;5073294;28;20021;-75
2021/11/29 01:46:43;;;;;;;4.20;2.45;;;;;;;1.24;100.00;95837.19;5073018;28;20021;-75
2021/11/29 01:49:09;;;;;;;5.88;2.38;;;;;;;1.27;100.00;95831.25;5072581;28;20032;-75
2021/11/29 01:51:34;;;;;;;3.80;2.17;;;;;;;1.30;100.00;95835.25;5073108;28;20021;-74
2021/11/29 01:53:59;;;;;;;3.88;1.90;;;;;;;1.31;100.00;95834.16;5073117;28;20043;-75
2021/11/29 01:56:25;;;;;;;3.55;1.75;;;;;;;1.32;100.00;95841.94;5073130;28;20028;-75
2021/11/29 01:58:51;;;;;;;3.28;1.80;;;;;;;1.36;100.00;95842.16;5072193;28;20776;-76
2021/11/29 02:01:20;;;;;;;3.47;1.80;;;;;;;1.27;100.00;95847.41;5071176;28;20185;-74
2021/11/29 02:03:49;;;;;;;3.10;1.80;;;;;;;1.28;100.00;95850.91;5072515;28;20036;-76
2021/11/29 02:06:15;;;;;;;2.97;1.55;;;;;;;1.25;100.00;95848.78;5085273;28;20438;-74
2021/11/29 02:08:40;;;;;;;3.25;1.85;;;;;;;1.27;100.00;95849.28;5091394;28;20047;-75
2021/11/29 02:11:06;;;;;;;3.42;1.73;;;;;;;1.34;100.00;95855.13;5090852;28;20073;-76
2021/11/29 02:13:33;;;;;;;3.08;1.80;;;;;;;1.30;100.00;95856.78;5090397;28;20016;-75
2021/11/29 02:15:58;;;;;;;4.57;1.92;;;;;;;1.29;100.00;95855.97;5091125;28;20439;-74
2021/11/29 02:18:27;;;;;;;4.43;2.30;;;;;;;1.26;100.00;95858.44;5092227;28;20020;-75
2021/11/29 02:21:03;;;;;;;6.22;2.88;;;;;;;1.16;100.00;95867.44;5092001;28;20046;-74
2021/11/29 02:23:29;;;;;;;5.70;2.88;;;;;;;1.29;100.00;95865.94;5092519;28;20036;-75
2021/11/29 02:25:54;;;;;;;3.78;1.88;;;;;;;1.29;100.00;95864.06;5091619;28;20085;-75
2021/11/29 02:28:21;;;;;;;5.40;2.95;;;;;;;1.37;100.00;95870.69;5092049;28;20024;-76
2021/11/29 02:30:47;;;;;;;4.32;2.40;;;;;;;1.47;100.00;95874.03;5092011;28;20051;-75
2021/11/29 02:33:12;;;;;;;2.83;1.65;;;;;;;1.44;100.00;95879.25;5093863;28;20491;-76
2021/11/29 02:35:38;;;;;;;3.42;1.80;;;;;;;1.46;100.00;95887.81;5092322;28;20483;-73
2021/11/29 02:38:05;;;;;;;3.75;1.85;;;;;;;1.58;100.00;95883.63;5092017;28;20055;-77
2021/11/29 02:40:32;;;;;;;4.28;2.22;;;;;;;1.39;100.00;95884.66;5092563;28;20101;-76
2021/11/29 02:42:57;;;;;;;6.00;2.42;;;;;;;1.52;100.00;95897.44;5094635;28;20020;-76
2021/11/29 02:45:23;;;;;;;2.42;1.30;;;;;;;1.48;100.00;95891.81;5097690;28;20020;-76
2021/11/29 02:47:48;;;;;;;3.42;1.70;;;;;;;1.60;100.00;95896.78;5092174;28;20053;-74
2021/11/29 02:50:14;;;;;;;2.85;1.75;;;;;;;1.51;100.00;95898.50;5092112;28;20024;-74
2021/11/29 02:52:40;;;;;;;2.88;1.67;;;;;;;1.51;100.00;95891.25;5092619;28;20051;-75
2021/11/29 02:55:08;;;;;;;4.43;2.10;;;;;;;1.60;100.00;95897.59;5091012;28;20481;-75
2021/11/29 02:57:33;;;;;;;4.10;1.70;;;;;;;1.54;100.00;95909.53;5092355;28;20024;-75
2021/11/29 02:59:59;;;;;;;4.15;2.10;;;;;;;1.50;100.00;95916.56;5091965;28;20115;-75
2021/11/29 03:02:31;;;;;;;7.53;2.13;;;;;;;1.53;100.00;95916.03;5091189;28;20066;-76
2021/11/29 03:04:57;;;;;;;12.30;1.98;;;;;;;1.60;100.00;95921.03;5091317;28;20100;-76
2021/11/29 03:07:22;;;;;;;3.83;1.90;;;;;;;1.51;100.00;95922.75;5091524;28;20060;-74
2021/11/29 03:09:48;;;;;;;3.80;2.03;;;;;;;1.45;100.00;95921.22;5091738;28;20507;-75
2021/11/29 03:12:14;;;;;;;4.75;2.00;;;;;;;1.42;100.00;95922.59;5091399;28;20078;-76
2021/11/29 03:14:39;;;;;;;3.40;2.03;;;;;;;1.52;100.00;95932.44;5090358;28;20051;-73
2021/11/29 03:17:05;;;;;;;2.90;1.85;;;;;;;1.56;100.00;95937.00;5091396;28;20124;-75
2021/11/29 03:19:33;;;;;;;3.80;2.25;;;;;;;1.49;100.00;95941.09;5091654;28;20031;-76
2021/11/29 03:22:00;;;;;;;4.18;2.30;;;;;;;1.52;100.00;95938.66;5097174;28;20026;-74
2021/11/29 03:24:25;;;;;;;4.32;2.25;;;;;;;1.56;100.00;95952.34;5096970;28;20069;-77
2021/11/29 03:26:51;;;;;;;4.45;2.50;;;;;;;1.47;100.00;95943.31;5090530;28;20024;-75
2021/11/29 03:29:18;;;;;;;4.90;2.35;;;;;;;1.45;100.00;95950.84;5091709;28;20028;-74
2021/11/29 03:31:44;;;;;;;5.93;3.38;;;;;;;1.41;100.00;95950.59;5090400;28;20378;-77
2021/11/29 03:34:12;;;;;;;4.32;2.70;;;;;;;1.34;100.00;95960.94;5090703;28;20031;-75
2021/11/29 03:36:41;;;;;;;5.25;2.70;;;;;;;1.34;100.00;95949.38;5089697;28;20473;-76
2021/11/29 03:39:10;;;;;;;3.83;2.25;;;;;;;1.31;100.00;95958.81;5090707;28;20065;-77
2021/11/29 03:41:37;;;;;;;7.03;2.85;;;;;;;1.34;100.00;95952.88;5090774;28;20035;-76
2021/11/29 03:44:02;;;;;;;4.13;2.40;;;;;;;1.35;100.00;95956.34;5091373;28;20044;-76
2021/11/29 03:46:28;;;;;;;3.53;1.90;;;;;;;1.35;100.00;95957.16;5090263;28;20066;-74
2021/11/29 03:48:54;;;;;;;4.07;2.40;;;;;;;1.40;100.00;95969.75;5090948;28;20074;-75
2021/11/29 03:51:19;;;;;;;4.80;2.75;;;;;;;1.37;100.00;95973.03;5091248;28;20031;-76
2021/11/29 03:53:45;;;;;;;6.30;2.70;;;;;;;1.30;100.00;95969.88;5091291;28;20043;-74
2021/11/29 03:56:10;;;;;;;4.57;2.97;;;;;;;1.26;100.00;95969.63;5090587;28;20040;-74
2021/11/29 03:58:36;;;;;;;4.60;2.80;;;;;;;1.25;100.00;95980.69;5088837;28;20032;-73
2021/11/29 04:01:02;;;;;;;4.07;2.60;;;;;;;1.21;100.00;95976.97;5088965;28;20031;-79
2021/11/29 04:03:28;;;;;;;4.00;2.33;;;;;;;1.16;100.00;95977.03;5090718;28;20055;-73
2021/11/29 04:05:53;;;;;;;4.40;2.45;;;;;;;1.04;100.00;95978.19;5090287;28;20055;-74
2021/11/29 04:08:19;;;;;;;4.95;2.70;;;;;;;1.10;100.00;95983.56;5090396;28;20060;-75
2021/11/29 04:10:44;;;;;;;5.15;2.90;;;;;;;1.07;100.00;95983.00;5090726;28;20388;-76
2021/11/29 04:13:10;;;;;;;4.28;2.58;;;;;;;1.02;100.00;95984.94;5090848;28;21294;-75
2021/11/29 04:15:36;;;;;;;7.28;2.63;;;;;;;1.14;100.00;95987.25;5091105;28;20024;-76
2021/11/29 04:18:04;;;;;;;3.85;2.53;;;;;;;1.13;100.00;95988.38;5088888;28;20024;-76
2021/11/29 04:20:30;;;;;;;3.58;2.30;;;;;;;1.08;100.00;95995.38;5091076;28;20042;-74
2021/11/29 04:22:55;;;;;;;4.47;2.65;;;;;;;1.15;100.00;95995.06;5089943;28;20034;-74
2021/11/29 04:25:24;;;;;;;5.95;2.63;;;;;;;1.15;100.00;96005.84;5094263;28;20121;-73
2021/11/29 04:27:50;;;;;;;5.97;2.53;;;;;;;1.16;100.00;96003.94;5090449;28;20024;-74
2021/11/29 04:30:19;;;;;;;4.65;2.67;;;;;;;1.14;100.00;96006.09;5090402;28;20103;-76
2021/11/29 04:32:48;;;;;;;5.00;2.50;;;;;;;1.13;100.00;96017.97;5090041;28;20410;-76
2021/11/29 04:35:15;;;;;;;7.28;2.97;;;;;;;1.12;100.00;96019.03;5090891;28;20057;-76
2021/11/29 04:37:41;;;;;;;7.70;4.30;;;;;;;1.07;100.00;96025.25;5092755;28;20034;-75
2021/11/29 04:40:07;;;;;;;7.60;3.65;;;;;;;0.99;100.00;96018.63;5079001;28;20032;-74
2021/11/29 04:42:33;;;;;;;9.70;3.78;;;;;;;1.05;100.00;96025.56;5093784;28;20118;-77
2021/11/29 04:44:58;;;;;;;7.72;3.85;;;;;;;0.92;100.00;96031.59;5093213;28;20028;-79
2021/11/29 04:47:24;;;;;;;7.28;3.70;;;;;;;0.95;100.00;96025.66;5090797;28;20081;-78
2021/11/29 04:49:49;;;;;;;5.15;2.90;;;;;;;1.03;100.00;96041.19;5091270;28;20389;-75
2021/11/29 04:52:15;;;;;;;6.30;3.00;;;;;;;1.10;100.00;96032.00;5091452;28;20031;-75
2021/11/29 04:54:41;;;;;;;5.30;3.10;;;;;;;1.11;100.00;96031.69;5091026;28;20117;-74
2021/11/29 04:57:06;;;;;;;9.70;3.10;;;;;;;1.20;100.00;96040.75;5082942;28;20055;-75
2021/11/29 04:59:32;;;;;;;6.13;2.97;;;;;;;1.20;100.00;96039.97;5073381;28;20564;-76
2021/11/29 05:01:57;;;;;;;8.57;4.30;;;;;;;1.17;100.00;96048.59;5074218;28;20024;-79
2021/11/29 05:04:23;;;;;;;5.20;3.05;;;;;;;1.19;100.00;96054.53;5069831;28;20027;-76
2021/11/29 05:06:48;;;;;;;4.13;2.67;;;;;;;1.16;100.00;96055.88;5069697;28;20371;-76
2021/11/29 05:09:14;;;;;;;4.50;2.70;;;;;;;1.19;100.00;96055.31;5087485;28;20039;-75
2021/11/29 05:11:40;;;;;;;4.85;2.50;;;;;;;1.16;100.00;96066.63;5090897;28;20020;-75
2021/11/29 05:14:06;;;;;;;6.38;3.33;;;;;;;1.16;100.00;96065.84;5094877;28;20027;-75
2021/11/29 05:16:32;;;;;;;9.40;2.78;;;;;;;1.13;100.00;96059.13;5101045;28;20028;-78
2021/11/29 05:18:58;;;;;;;6.55;2.65;;;;;;;1.11;100.00;96079.34;5095514;28;20530;-76
2021/11/29 05:21:23;;;;;;;5.10;2.60;;;;;;;1.16;100.00;96087.41;5094302;28;20073;-75
2021/11/29 05:23:50;;;;;;;6.03;2.67;;;;;;;1.17;100.00;96088.97;5093726;28;20028;-76
2021/11/29 05:26:23;;;;;;;6.72;2.47;;;;;;;1.25;100.00;96093.78;5092496;28;20028;-77
2021/11/29 05:28:50;;;;;;;6.05;2.47;;;;;;;1.23;100.00;96098.63;5093316;28;20381;-75
2021/11/29 05:31:15;;;;;;;6.88;2.40;;;;;;;1.25;100.00;96104.53;5093210;28;20448;-75
2021/11/29 05:33:41;;;;;;;6.80;2.60;;;;;;;1.23;100.00;96104.00;5093694;28;20024;-76
2021/11/29 05:36:07;;;;;;;8.30;3.22;;;;;;;1.14;100.00;96101.13;5093583;28;20075;-74
2021/11/29 05:38:32;;;;;;;4.60;3.13;;;;;;;1.13;100.00;96106.81;5093528;28;20024;-75
2021/11/29 05:40:58;;;;;;;6.05;2.85;;;;;;;1.12;100.00;96110.56;5093246;28;20504;-75
2021/11/29 05:43:23;;;;;;;8.32;4.97;;;;;;;1.12;100.00;96115.94;5093033;28;20020;-75
2021/11/29 05:45:49;;;;;;;5.50;3.17;;;;;;;1.13;100.00;96131.03;5092359;28;20028;-74
2021/11/29 05:48:14;;;;;;;11.85;4.00;;;;;;;0.98;100.00;96135.41;5092285;28;20020;-75
2021/11/29 05:50:40;;;;;;;8.55;5.47;;;;;;;1.02;100.00;96133.78;5093740;28;20050;-76
2021/11/29 05:53:05;;;;;;;11.25;4.53;;;;;;;1.04;100.00;96142.38;5093852;28;20046;-81
2021/11/29 05:55:31;;;;;;;7.65;3.55;;;;;;;1.05;100.00;96143.19;5093531;28;20044;-77
2021/11/29 05:57:57;;;;;;;8.38;4.07;;;;;;;1.06;100.00;96142.09;5093649;28;20186;-75
2021/11/29 06:00:23;;;;;;;8.20;3.85;;;;;;;1.05;100.00;96146.69;5091673;28;20095;-75
2021/11/29 06:02:48;;;;;;;6.55;4.03;;;;;;;1.02;100.00;96139.16;5092337;28;20495;-74
2021/11/29 06:05:14;;;;;;;7.85;4.20;;;;;;;1.03;100.00;96154.22;5092657;28;20035;-74
2021/11/29 06:07:41;;;;;;;11.23;4.40;;;;;;;1.08;100.00;96156.09;5093087;28;20024;-75
2021/11/29 06:10:07;;;;;;;8.20;4.35;;;;;;;1.17;100.00;96167.06;5093168;28;20019;-74
2021/11/29 06:12:33;;;;;;;10.20;4.68;;;;;;;1.21;100.00;96173.50;5092590;28;20477;-77
2021/11/29 06:14:58;;;;;;;6.05;3.65;;;;;;;1.31;100.00;96178.81;5094896;28;20035;-79
2021/11/29 06:17:24;;;;;;;11.68;5.00;;;;;;;1.36;100.00;96190.34;5091745;28;20479;-74
2021/11/29 06:19:49;;;;;;;7.10;4.22;;;;;;;1.31;100.00;96187.69;5092311;28;20039;-74
2021/11/29 06:22:15;;;;;;;8.45;4.32;;;;;;;1.33;100.00;96196.28;5091667;28;20112;-76
2021/11/29 06:24:40;;;;;;;7.50;4.30;;;;;;;1.41;100.00;96197.59;5091335;28;20480;-77
2021/11/29 06:27:06;;;;;;;6.40;3.88;;;;;;;1.35;100.00;96204.88;5093032;28;20464;-78
2021/11/29 06:29:31;;;;;;;6.25;3.65;;;;;;;1.34;100.00;96202.50;5095543;28;20024;-74
2021/11/29 06:31:56;;;;;;;6.20;3.78;;;;;;;1.25;100.00;96210.38;5091264;28;20020;-72
2021/11/29 06:34:25;;;;;;;8.18;4.45;;;;;;;1.21;100.00;96209.31;5091206;28;20043;-74
2021/11/29 06:36:52;;;;;;;8.65;4.53;;;;;;;1.20;100.00;96217.66;5091670;28;20028;-74
2021/11/29 06:39:20;;;;;;;10.60;4.43;;;;;;;1.17;100.00;96213.63;5091303;28;20073;-75
2021/11/29 06:41:45;;;;;;;7.60;4.93;;;;;;;1.22;100.00;96226.28;5091314;28;20035;-75
2021/11/29 06:44:10;;;;;;;9.82;3.95;;;;;;;1.11;100.00;96224.69;5091619;28;20030;-75
2021/11/29 06:46:36;;;;;;;6.13;3.90;;;;;;;1.18;100.00;96230.59;5090349;28;20024;-76
2021/11/29 06:49:01;;;;;;;4.70;3.05;;;;;;;1.14;100.00;96234.91;5092064;28;20459;-76
2021/11/29 06:51:27;;;;;;;4.47;2.75;;;;;;;1.20;100.00;96244.56;5091756;28;20494;-76
2021/11/29 06:53:52;;;;;;;5.38;3.30;;;;;;;1.29;100.00;96242.91;5091106;28;20028;-74
2021/11/29 06:56:18;;;;;;;5.63;3.00;;;;;;;1.18;100.00;96250.25;5089495;28;20039;-75
2021/11/29 06:58:43;;;;;;;6.35;3.45;;;;;;;1.32;100.00;96250.41;5089878;28;20459;-74
2021/11/29 07:01:09;;;;;;;6.68;3.05;;;;;;;1.31;100.00;96251.53;5089825;28;20388;-73
2021/11/29 07:03:38;;;;;;;5.18;2.75;;;;;;;1.21;100.00;96247.00;5089701;28;20031;-73
2021/11/29 07:06:03;;;;;;;6.10;3.05;;;;;;;1.18;100.00;96255.63;5089741;28;20017;-74
2021/11/29 07:08:29;;;;;;;7.55;3.95;;;;;;;1.27;100.00;96259.34;5091358;28;20018;-74
2021/11/29 07:10:57;;;;;;;8.82;3.30;;;;;;;1.16;100.00;96248.91;5092158;28;20409;-75
2021/11/29 07:13:28;;;;;;;11.35;4.25;;;;;;;1.38;100.00;96268.19;5088979;28;20051;-74
2021/11/29 07:15:54;;;;;;;11.85;4.60;;;;;;;1.51;100.00;96268.34;5095532;28;20031;-75
2021/11/29 07:18:20;;;;;;;7.55;3.90;;;;;;;1.58;100.00;96268.03;5092220;28;20465;-74
2021/11/29 07:20:45;;;;;;;10.68;4.93;;;;;;;1.72;100.00;96279.81;5087681;28;20024;-74
2021/11/29 07:23:14;;;;;;;12.55;5.95;;;;;;;1.59;100.00;96275.03;5089380;28;20473;-74
2021/11/29 07:25:39;;;;;;;7.35;3.70;;;;;;;1.61;100.00;96278.25;5085183;28;20043;-75
2021/11/29 07:28:08;;;;;;;3.70;2.38;;;;;;;1.56;100.00;96281.00;5089139;28;20023;-79
2021/11/29 07:30:33;;;;;;;4.57;2.25;;;;;;;1.51;100.00;96281.00;5090760;28;20511;-74
2021/11/29 07:33:02;;;;;;;3.95;2.10;;;;;;;1.50;100.00;96287.50;5090663;28;20024;-73
2021/11/29 07:35:29;;;;;;;3.30;1.83;;;;;;;1.48;100.00;96281.56;5087240;28;20020;-74
2021/11/29 07:37:55;;;;;;;3.53;2.00;;;;;;;1.49;100.00;96275.91;5089519;28;20472;-75
2021/11/29 07:40:27;;;;;;;3.90;2.28;;;;;;;1.60;100.00;96272.06;5089778;28;20039;-74
2021/11/29 07:42:53;;;;;;;5.47;2.50;;;;;;;1.68;100.00;96289.53;5088490;28;20366;-75
2021/11/29 07:45:18;;;;;;;4.57;2.75;;;;;;;1.74;100.00;96288.41;5089687;28;20085;-76
2021/11/29 07:47:46;;;;;;;4.97;2.83;;;;;;;1.66;100.00;96288.97;5087001;28;20050;-75
2021/11/29 07:50:15;;;;;;;3.70;1.92;;;;;;;1.79;100.00;96291.06;5089785;28;20340;-75
2021/11/29 07:52:48;;;;;;;4.45;2.20;;;;;;;1.85;100.00;96297.22;5089894;28;20027;-76
2021/11/29 07:55:28;;;;;;;3.35;2.03;;;;;;;1.90;100.00;96307.97;5089664;28;20374;-75
2021/11/29 07:57:55;;;;;;;3.47;1.67;;;;;;;1.98;100.00;96305.47;5088563;28;20024;-74
2021/11/29 08:00:24;;;;;;;3.42;1.73;;;;;;;1.82;100.00;96300.47;5087849;28;20467;-75
2021/11/29 08:02:54;;;;;;;2.83;1.75;;;;;;;1.86;100.00;96307.72;5089646;28;20544;-74
2021/11/29 08:05:21;;;;;;;3.55;1.80;;;;;;;2.08;100.00;96310.78;5091590;28;20024;-75
2021/11/29 08:07:48;;;;;;;3.28;1.77;;;;;;;2.12;100.00;96303.75;5090522;28;20027;-75
2021/11/29 08:10:14;;;;;;;2.83;1.58;;;;;;;1.97;100.00;96309.22;5088646;28;20426;-74
2021/11/29 08:12:39;;;;;;;4.45;2.00;;;;;;;2.04;100.00;96315.13;5091414;28;20112;-74
2021/11/29 08:15:05;;;;;;;2.63;1.58;;;;;;;1.98;100.00;96315.44;5090915;28;20020;-74
2021/11/29 08:17:31;;;;;;;3.60;1.88;;;;;;;1.98;100.00;96328.91;5091054;28;20023;-74
2021/11/29 08:19:56;;;;;;;4.03;2.17;;;;;;;1.81;100.00;96315.03;5090157;28;20024;-74
2021/11/29 08:22:22;;;;;;;3.83;1.92;;;;;;;1.88;100.00;96321.72;5089548;28;20027;-74
2021/11/29 08:24:47;;;;;;;2.88;1.75;;;;;;;1.74;100.00;96328.00;5088795;28;20028;-75
2021/11/29 08:27:13;;;;;;;5.03;2.00;;;;;;;1.80;100.00;96330.41;5089778;28;20024;-74
2021/11/29 08:29:38;;;;;;;4.45;2.28;;;;;;;1.93;100.00;96335.16;5089970;28;20051;-73
2021/11/29 08:32:04;;;;;;;5.93;2.92;;;;;;;1.97;100.00;96332.72;5090369;28;20031;-73
2021/11/29 08:34:30;;;;;;;5.25;2.30;;;;;;;2.08;100.00;96331.53;5089804;28;20030;-73
2021/11/29 08:36:56;;;;;;;4.00;2.20;;;;;;;2.13;100.00;96351.19;5089937;28;20374;-73
2021/11/29 08:39:22;;;;;;;4.97;2.72;;;;;;;2.12;100.00;96349.59;5089648;28;20024;-74
2021/11/29 08:41:47;;;;;;;4.68;2.67;;;;;;;1.96;100.00;96349.97;5089821;28;20099;-73
2021/11/29 08:44:13;;;;;;;7.93;3.53;;;;;;;2.06;100.00;96360.69;5089753;28;20024;-74
2021/11/29 08:46:38;;;;;;;4.82;2.15;;;;;;;1.77;100.00;96352.50;5091781;28;20024;-73
2021/11/29 08:49:04;;;;;;;5.95;3.10;;;;;;;1.90;100.00;96364.56;5093976;28;20114;-74
2021/11/29 08:51:31;;;;;;;6.47;3.78;;;;;;;1.87;100.00;96365.94;5093662;28;20369;-74
2021/11/29 08:53:56;;;;;;;6.72;3.70;;;;;;;1.93;100.00;96364.00;5093992;28;20064;-74
2021/11/29 08:56:22;;;;;;;6.70;3.50;;;;;;;1.94;100.00;96366.41;5094217;28;20085;-74
2021/11/29 08:58:48;;;;;;;7.60;3.15;;;;;;;1.98;100.00;96370.16;5094339;28;20034;-74
2021/11/29 09:01:14;;;;;;;4.10;2.42;;;;;;;2.14;100.00;96366.28;5095408;28;20530;-73
2021/11/29 09:03:39;;;;;;;5.35;2.75;;;;;;;2.30;100.00;96366.97;5094482;28;20039;-74
2021/11/29 09:06:05;;;;;;;4.97;2.70;;;;;;;2.15;100.00;96376.00;5094514;28;20501;-73
2021/11/29 09:08:32;;;;;;;6.93;3.53;;;;;;;2.50;100.00;96388.41;5091121;28;20381;-74
2021/11/29 09:10:59;;;;;;;5.90;2.55;;;;;;;2.67;100.00;96394.16;5093611;28;20080;-73
2021/11/29 09:13:30;;;;;;;4.93;2.95;;;;;;;2.84;100.00;96396.47;5092032;28;20085;-74
2021/11/29 09:15:56;;;;;;;6.18;3.20;;;;;;;3.03;100.00;96391.94;5113839;28;20031;-73
2021/11/29 09:18:21;;;;;;;4.68;2.80;;;;;;;2.80;100.00;96400.81;5116285;28;20168;-74
2021/11/29 09:20:47;;;;;;;7.38;2.90;;;;;;;3.28;100.00;96398.16;5094419;28;20497;-74
2021/11/29 09:23:14;;;;;;;4.13;2.42;;;;;;;3.84;100.00;96401.00;5093498;28;20484;-73
2021/11/29 09:25:43;;;;;;;4.82;2.67;;;;;;;3.86;100.00;96396.91;5094603;28;20477;-73
2021/11/29 09:28:10;;;;;;;5.90;3.70;;;;;;;3.98;100.00;96397.25;5094442;28;20090;-74
2021/11/29 09:30:37;;;;;;;7.32;3.08;;;;;;;4.04;100.00;96395.31;5100470;28;20581;-74
2021/11/29 09:33:03;;;;;;;7.30;4.07;;;;;;;3.57;100.00;96398.91;5095575;28;20024;-73
2021/11/29 09:35:28;;;;;;;7.57;4.35;;;;;;;3.52;100.00;96409.75;5093592;28;20032;-73
2021/11/29 09:37:54;;;;;;;7.43;4.35;;;;;;;3.68;100.00;96393.06;5093367;28;20035;-74
2021/11/29 09:40:23;;;;;;;7.60;3.95;;;;;;;3.92;100.00;96392.22;5093418;28;20114;-74
2021/11/29 09:42:49;;;;;;;7.85;4.63;;;;;;;3.97;100.00;96387.56;5092431;28;20066;-73
2021/11/29 09:45:16;;;;;;;6.80;3.40;;;;;;;4.15;100.00;96386.75;5094933;28;20024;-74
2021/11/29 09:47:42;;;;;;;7.60;3.78;;;;;;;4.15;100.00;96389.47;5093619;28;20024;-73
2021/11/29 09:50:10;;;;;;;6.53;3.65;;;;;;;4.06;100.00;96387.69;5093637;28;20036;-74
2021/11/29 09:52:35;;;;;;;6.45;3.75;;;;;;;3.93;100.00;96412.75;5092538;28;20389;-75
2021/11/29 09:55:01;;;;;;;7.18;3.80;;;;;;;3.94;100.00;96406.25;5092366;28;20048;-73
2021/11/29 09:57:27;;;;;;;6.28;3.72;;;;;;;4.08;100.00;96418.78;5096799;28;20392;-74
2021/11/29 09:59:52;;;;;;;14.75;3.50;;;;;;;3.93;100.00;96410.88;5093641;28;20032;-74
2021/11/29 10:02:18;;;;;;;6.20;3.38;;;;;;;3.81;100.00;96412.38;5093100;28;20110;-73
2021/11/29 10:04:50;;;;;;;8.15;3.80;;;;;;;3.80;100.00;96416.97;5090793;28;20035;-74
2021/11/29 10:07:30;;;;;;;7.95;3.90;;;;;;;3.66;100.00;96435.03;5092694;28;20024;-74
2021/11/29 10:09:56;;;;;;;6.32;4.10;;;;;;;3.58;100.00;96430.22;5092688;28;20035;-74
2021/11/29 10:12:26;;;;;;;7.22;3.75;;;;;;;3.58;100.00;96427.53;5094352;28;20016;-73
2021/11/29 10:15:12;;;;;;;7.22;4.25;;;;;;;3.38;100.00;96420.47;5092547;28;20095;-74
2021/11/29 10:17:37;;;;;;;;;;;;;;;3.44;100.00;96424.72;5093911;28;20071;-73
2021/11/29 10:20:03;;;;;;;;;;;;;;;3.59;100.00;96416.44;5092132;28;19924;-73
2021/11/29 10:22:29;;;;;;;7.78;4.28;;;;;;;3.44;100.00;96418.53;5092038;28;19965;-73
2021/11/29 10:24:54;;;;;;;6.68;4.30;;;;;;;3.80;100.00;96416.97;5092489;28;20032;-73
2021/11/29 10:27:38;;;;;;;7.80;4.40;;;;;;;4.11;100.00;96420.88;5092791;28;20055;-74
2021/11/29 10:30:04;;;;;;;7.20;4.38;;;;;;;4.27;100.00;96416.88;5093614;28;20527;-73
2021/11/29 10:32:36;;;;;;;5.32;3.40;;;;;;;4.25;100.00;96421.78;5103292;27;20135;-73
2021/11/29 10:35:02;;;;;;;5.88;3.17;;;;;;;4.33;100.00;96420.31;5091832;28;20031;-74
2021/11/29 10:37:30;;;;;;;7.32;3.75;;;;;;;4.40;97.70;96414.53;5092284;28;20084;-74
2021/11/29 10:39:56;;;;;;;6.07;3.10;;;;;;;4.51;98.74;96413.28;5092361;28;20020;-73
2021/11/29 10:42:25;;;;;;;6.07;2.72;;;;;;;4.79;92.73;96426.59;5092130;28;20035;-74
2021/11/29 10:44:53;;;;;;;8.00;3.20;;;;;;;4.46;94.68;96424.97;5091248;28;20401;-74
2021/11/29 10:47:20;;;;;;;7.78;3.17;;;;;;;4.48;96.86;96422.78;5092132;28;20027;-74
2021/11/29 10:49:56;;;;;;;7.50;3.67;;;;;;;4.52;97.77;96428.41;5091576;28;20008;-73
2021/11/29 10:52:28;;;;;;;6.88;3.80;;;;;;;4.30;98.07;96419.00;5095400;28;20067;-73
2021/11/29 10:54:55;;;;;;;6.75;3.58;;;;;;;4.50;98.16;96425.19;5092516;28;20166;-73
2021/11/29 10:57:22;;;;;;;9.13;5.00;;;;;;;4.50;100.00;96426.00;5095818;28;20028;-78
2021/11/29 10:59:50;;;;;;;6.45;3.78;;;;;;;4.14;98.97;96431.13;5095096;28;20362;-73
2021/11/29 11:02:24;;;;;;;5.45;3.25;;;;;;;3.72;100.00;96429.25;5091969;28;20453;-73
2021/11/29 11:05:09;;;;;;;5.55;3.38;;;;;;;3.56;100.00;96429.72;5091758;28;20032;-73
2021/11/29 11:07:37;;;;;;;4.95;3.40;;;;;;;3.57;100.00;96428.63;5091965;28;20084;-73
2021/11/29 11:10:06;;;;;;;7.80;4.13;;;;;;;3.35;100.00;96428.34;5090847;28;20063;-73
2021/11/29 11:12:33;;;;;;;7.68;3.80;;;;;;;3.50;100.00;96431.69;5091461;28;20024;-73
2021/11/29 11:15:04;;;;;;;8.80;3.47;;;;;;;3.52;100.00;96421.38;5091392;28;20058;-74
2021/11/29 11:17:31;;;;;;;6.43;3.38;;;;;;;3.35;100.00;96422.94;5091585;28;20456;-73
2021/11/29 11:20:00;;;;;;;6.60;3.58;;;;;;;3.78;100.00;96419.19;5091405;28;20028;-74
2021/11/29 11:22:34;;;;;;;6.05;3.22;;;;;;;4.62;96.02;96422.84;5091194;28;20066;-73
2021/11/29 11:25:06;;;;;;;5.95;3.08;;;;;;;4.78;95.22;96425.03;5091701;28;20024;-73
2021/11/29 11:28:00;;;;;;;5.22;3.47;;;;;;;5.75;89.47;96432.19;5091588;28;20516;-73
2021/11/29 11:30:32;;;;;;;5.70;3.33;;;;;;;5.28;86.25;96436.88;5082928;28;20081;-73
2021/11/29 11:33:05;;;;;;;6.45;3.55;;;;;;;4.61;89.46;96434.75;5091192;28;20028;-73